createdAt,value
2023-02-09T00:01:12.393Z,96939.00
2023-02-09T00:06:40.685Z,96920.00
2023-02-09T00:12:28.700Z,96925.00
2023-02-09T00:17:57.177Z,96941.00
2023-02-09T00:23:27.545Z,96953.00
2023-02-09T00:28:55.572Z,96955.00
2023-02-09T00:34:23.596Z,96942.00
2023-02-09T00:39:51.737Z,96946.00
2023-02-09T00:45:20.583Z,96928.00
2023-02-09T00:50:51.954Z,96923.00
2023-02-09T00:56:20.083Z,96933.00
2023-02-09T01:01:48.314Z,96935.00
2023-02-09T01:07:16.387Z,96934.00
2023-02-09T01:12:44.563Z,96924.00
2023-02-09T01:18:12.766Z,96929.00
2023-02-09T01:23:45.870Z,96923.00
2023-02-09T01:29:15.670Z,96926.00
2023-02-09T01:34:44.840Z,96915.00
2023-02-09T01:40:13.117Z,96917.00
2023-02-09T01:45:51.314Z,96923.00
2023-02-09T01:51:21.603Z,96902.00
2023-02-09T01:57:00.205Z,96902.00
2023-02-09T02:02:28.583Z,96900.00
2023-02-09T02:08:13.323Z,96898.00
2023-02-09T02:13:42.401Z,96896.00
2023-02-09T02:19:22.473Z,96903.00
2023-02-09T02:25:13.029Z,96902.00
2023-02-09T02:31:33.793Z,96900.00
2023-02-09T02:37:33.040Z,96904.00
2023-02-09T02:43:20.050Z,96897.00
2023-02-09T02:49:17.377Z,96910.00
2023-02-09T02:55:15.749Z,96905.00
2023-02-09T03:00:51.856Z,96892.00
2023-02-09T03:06:20.124Z,96893.00
2023-02-09T03:11:51.819Z,96887.00
2023-02-09T03:17:40.760Z,96888.00
2023-02-09T03:23:32.927Z,96889.00
2023-02-09T03:29:02.483Z,96885.00
2023-02-09T03:34:30.881Z,96883.00
2023-02-09T03:39:59.018Z,96888.00
2023-02-09T03:45:27.176Z,96880.00
2023-02-09T03:50:56.057Z,96889.00
2023-02-09T03:56:25.240Z,96879.00
2023-02-09T04:01:58.796Z,96886.00
2023-02-09T04:07:26.921Z,96889.00
2023-02-09T04:12:56.152Z,96893.00
2023-02-09T04:18:24.254Z,96883.00
2023-02-09T04:23:54.378Z,96893.00
2023-02-09T04:29:22.527Z,96887.00
2023-02-09T04:34:51.822Z,96895.00
2023-02-09T04:40:19.938Z,96902.00
2023-02-09T04:45:48.393Z,96888.00
2023-02-09T04:51:17.711Z,96896.00
2023-02-09T04:56:45.749Z,96895.00
2023-02-09T05:02:13.893Z,96896.00
2023-02-09T05:07:41.924Z,96907.00
2023-02-09T05:13:09.968Z,96905.00
2023-02-09T05:18:38.033Z,96909.00
2023-02-09T05:24:06.482Z,96919.00
2023-02-09T05:29:34.748Z,96916.00
2023-02-09T05:35:02.785Z,96918.00
2023-02-09T05:40:30.831Z,96918.00
2023-02-09T05:45:58.977Z,96931.00
2023-02-09T05:51:27.113Z,96927.00
2023-02-09T05:56:55.211Z,96924.00
2023-02-09T06:02:23.396Z,96915.00
2023-02-09T06:07:51.712Z,96922.00
2023-02-09T06:13:19.742Z,96938.00
2023-02-09T06:18:47.875Z,96933.00
2023-02-09T06:24:17.246Z,96941.00
2023-02-09T06:29:48.039Z,96944.00
2023-02-09T06:35:17.514Z,96943.00
2023-02-09T06:40:47.456Z,96960.00
2023-02-09T06:46:16.548Z,96968.00
2023-02-09T06:51:44.675Z,96967.00
2023-02-09T06:57:12.977Z,96959.00
2023-02-09T07:02:43.280Z,96971.00
2023-02-09T07:08:11.679Z,96967.00
2023-02-09T07:13:40.005Z,96971.00
2023-02-09T07:19:08.011Z,96977.00
2023-02-09T07:24:36.131Z,96985.00
2023-02-09T07:30:04.578Z,96999.00
2023-02-09T07:35:32.796Z,96992.00
2023-02-09T07:41:01.780Z,96989.00
2023-02-09T07:46:29.909Z,97004.00
2023-02-09T07:51:58.102Z,97002.00
2023-02-09T07:57:27.677Z,97014.00
2023-02-09T08:02:55.946Z,97008.00
2023-02-09T08:08:25.105Z,97004.00
2023-02-09T08:13:55.695Z,97005.00
2023-02-09T08:19:24.716Z,97007.00
2023-02-09T08:24:54.573Z,96996.00
2023-02-09T08:30:22.726Z,97004.00
2023-02-09T08:35:52.530Z,97000.00
2023-02-09T08:41:21.410Z,96999.00
2023-02-09T08:46:49.817Z,97011.00
2023-02-09T08:52:18.936Z,97014.00
2023-02-09T08:57:47.047Z,97011.00
2023-02-09T09:03:15.427Z,97009.00
2023-02-09T09:08:43.944Z,97016.00
2023-02-09T09:14:12.347Z,97010.00
2023-02-09T09:19:40.587Z,97017.00
2023-02-09T09:25:08.956Z,97013.00
2023-02-09T09:30:37.917Z,97021.00
2023-02-09T09:36:07.238Z,97013.00
2023-02-09T09:41:39.859Z,97019.00
2023-02-09T09:47:15.171Z,97028.00
2023-02-09T09:52:47.651Z,97035.00
2023-02-09T09:58:20.108Z,97038.00
2023-02-09T10:03:48.736Z,97045.00
2023-02-09T10:09:40.654Z,97048.00
2023-02-09T10:15:31.536Z,97053.00
2023-02-09T10:21:14.419Z,97052.00
2023-02-09T10:26:43.671Z,97061.00
2023-02-09T10:32:11.751Z,97037.00
2023-02-09T10:37:40.426Z,97042.00
2023-02-09T10:43:25.432Z,97036.00
2023-02-09T10:48:53.609Z,97025.00
2023-02-09T10:54:22.232Z,97036.00
2023-02-09T11:00:00.191Z,97025.00
2023-02-09T11:05:35.548Z,97024.00
2023-02-09T11:11:08.620Z,97013.00
2023-02-09T11:16:50.855Z,97005.00
2023-02-09T11:22:29.556Z,97006.00
2023-02-09T11:28:12.893Z,97007.00
2023-02-09T11:34:05.794Z,96997.00
2023-02-09T11:39:58.235Z,97004.00
2023-02-09T11:45:48.565Z,96997.00
2023-02-09T11:51:26.727Z,97004.00
2023-02-09T11:57:03.203Z,96997.00
2023-02-09T12:02:40.274Z,96992.00
2023-02-09T12:08:11.563Z,96983.00
2023-02-09T12:14:18.654Z,96974.00
2023-02-09T12:19:58.090Z,96956.00
2023-02-09T12:26:01.243Z,96960.00
2023-02-09T12:31:31.942Z,96952.00
2023-02-09T12:37:17.485Z,96938.00
2023-02-09T12:43:10.205Z,96945.00
2023-02-09T12:49:13.738Z,96947.00
2023-02-09T12:54:56.789Z,96930.00
2023-02-09T13:00:33.332Z,96931.00
2023-02-09T13:06:06.918Z,96936.00
2023-02-09T13:12:18.757Z,96930.00
2023-02-09T13:18:14.128Z,96925.00
2023-02-09T13:24:07.723Z,96934.00
2023-02-09T13:29:36.062Z,96922.00
2023-02-09T13:35:23.590Z,96929.00
2023-02-09T13:40:52.322Z,96928.00
2023-02-09T13:46:34.182Z,96934.00
2023-02-09T13:52:23.761Z,96944.00
2023-02-09T13:58:02.128Z,96935.00
2023-02-09T14:04:14.737Z,96942.00
2023-02-09T14:09:48.952Z,96947.00
2023-02-09T14:15:35.844Z,96944.00
2023-02-09T14:21:10.946Z,96945.00
2023-02-09T14:26:52.842Z,96944.00
2023-02-09T14:32:37.625Z,96940.00
2023-02-09T14:38:06.077Z,96938.00
2023-02-09T14:43:34.216Z,96956.00
2023-02-09T14:49:02.448Z,96962.00
2023-02-09T14:54:36.621Z,96961.00
2023-02-09T15:00:16.348Z,96946.00
2023-02-09T15:05:48.196Z,96951.00
2023-02-09T15:11:43.066Z,96952.00
2023-02-09T15:17:23.865Z,96963.00
2023-02-09T15:22:53.668Z,96960.00
2023-02-09T15:28:30.278Z,96965.00
2023-02-09T15:34:00.602Z,96973.00
2023-02-09T15:39:31.508Z,96981.00
2023-02-09T15:45:21.723Z,96984.00
2023-02-09T15:50:50.814Z,96986.00
2023-02-09T15:56:20.938Z,96999.00
2023-02-09T16:01:51.745Z,97007.00
2023-02-09T16:07:25.217Z,97001.00
2023-02-09T16:12:54.134Z,97013.00
2023-02-09T16:18:24.312Z,97013.00
2023-02-09T16:23:54.869Z,97016.00
2023-02-09T16:29:25.942Z,97019.00
2023-02-09T16:34:55.031Z,97022.00
2023-02-09T16:40:28.345Z,97043.00
2023-02-09T16:46:03.242Z,97044.00
2023-02-09T16:51:32.005Z,97051.00
2023-02-09T16:57:00.973Z,97048.00
2023-02-09T17:02:33.492Z,97065.00
2023-02-09T17:08:15.252Z,97064.00
2023-02-09T17:13:43.728Z,97060.00
2023-02-09T17:19:15.398Z,97073.00
2023-02-09T17:24:43.688Z,97082.00
2023-02-09T17:30:17.568Z,97081.00
2023-02-09T17:36:22.308Z,97090.00
2023-02-09T17:41:43.203Z,97090.00
2023-02-09T17:47:17.258Z,97090.00
2023-02-09T17:52:45.761Z,97094.00
2023-02-09T17:58:14.689Z,97099.00
2023-02-09T18:03:47.324Z,97097.00
2023-02-09T18:09:15.975Z,97101.00
2023-02-09T18:14:44.084Z,97110.00
2023-02-09T18:20:23.560Z,97122.00
2023-02-09T18:25:52.845Z,97116.00
2023-02-09T18:31:21.174Z,97106.00
2023-02-09T18:36:49.631Z,97116.00
2023-02-09T18:42:17.946Z,97107.00
2023-02-09T18:47:46.687Z,97115.00
2023-02-09T18:53:15.968Z,97108.00
2023-02-09T18:58:45.537Z,97115.00
2023-02-09T19:04:13.946Z,97126.00
2023-02-09T19:09:45.941Z,97124.00
2023-02-09T19:15:15.572Z,97126.00
2023-02-09T19:20:43.651Z,97126.00
2023-02-09T19:26:12.316Z,97131.00
2023-02-09T19:31:40.442Z,97128.00
2023-02-09T19:37:09.127Z,97132.00
2023-02-09T19:42:37.645Z,97132.00
2023-02-09T19:48:08.760Z,97127.00
2023-02-09T19:53:37.415Z,97129.00
2023-02-09T19:59:06.720Z,97130.00
2023-02-09T20:04:35.444Z,97135.00
2023-02-09T20:10:04.000Z,97128.00
2023-02-09T20:15:33.386Z,97125.00
2023-02-09T20:21:06.691Z,97133.00
2023-02-09T20:26:34.860Z,97136.00
2023-02-09T20:32:06.132Z,97166.00
2023-02-09T20:37:37.632Z,97152.00
2023-02-09T20:43:26.214Z,97145.00
2023-02-09T20:48:57.495Z,97154.00
2023-02-09T20:54:32.340Z,97153.00
2023-02-09T21:00:04.757Z,97161.00
2023-02-09T21:05:55.196Z,97165.00
2023-02-09T21:11:49.298Z,97180.00
2023-02-09T21:17:19.379Z,97179.00
2023-02-09T21:22:48.417Z,97184.00
2023-02-09T21:28:18.182Z,97174.00
2023-02-09T21:34:18.079Z,97178.00
2023-02-09T21:39:47.362Z,97185.00
2023-02-09T21:45:16.943Z,97175.00
2023-02-09T21:50:45.458Z,97183.00
2023-02-09T21:56:14.734Z,97192.00
2023-02-09T22:01:43.964Z,97200.00
2023-02-09T22:07:13.268Z,97198.00
2023-02-09T22:12:41.510Z,97200.00
2023-02-09T22:18:10.347Z,97205.00
2023-02-09T22:23:39.038Z,97212.00
2023-02-09T22:29:10.404Z,97216.00
2023-02-09T22:34:40.588Z,97218.00
2023-02-09T22:40:09.405Z,97220.00
2023-02-09T22:45:37.585Z,97225.00
2023-02-09T22:51:06.333Z,97231.00
2023-02-09T22:56:36.305Z,97223.00
2023-02-09T23:02:05.392Z,97210.00
2023-02-09T23:07:33.582Z,97211.00
2023-02-09T23:13:01.671Z,97220.00
2023-02-09T23:18:29.753Z,97216.00
2023-02-09T23:23:58.064Z,97207.00
2023-02-09T23:29:26.380Z,97207.00
2023-02-09T23:34:54.493Z,97202.00
2023-02-09T23:40:22.619Z,97208.00
2023-02-09T23:45:51.130Z,97209.00
2023-02-09T23:51:30.780Z,97212.00
2023-02-09T23:56:59.089Z,97228.00
